sensor_id;sensor_type;location;lat;lon;timestamp;pressure;altitude;pressure_sealevel;temperature;humidity
39887;BME280;25559;44.738;20.980;2022-09-12T00:02:52;100557.56;;;18.44;nan
39887;BME280;25559;44.738;20.980;2022-09-12T00:05:18;100548.09;;;18.42;nan
39887;BME280;25559;44.738;20.980;2022-09-12T00:07:43;100545.56;;;18.40;nan
39887;BME280;25559;44.738;20.980;2022-09-12T00:10:09;100542.78;;;18.43;nan
39887;BME280;25559;44.738;20.980;2022-09-12T00:12:35;100548.09;;;18.42;nan
39887;BME280;25559;44.738;20.980;2022-09-12T00:15:00;100551.66;;;18.41;nan
39887;BME280;25559;44.738;20.980;2022-09-12T00:17:26;100557.81;;;18.40;nan
39887;BME280;25559;44.738;20.980;2022-09-12T00:19:51;100542.84;;;18.42;nan
39887;BME280;25559;44.738;20.980;2022-09-12T00:22:17;100546.41;;;18.41;nan
39887;BME280;25559;44.738;20.980;2022-09-12T00:24:45;100537.59;;;18.42;nan
39887;BME280;25559;44.738;20.980;2022-09-12T00:27:11;100542.00;;;18.41;nan
39887;BME280;25559;44.738;20.980;2022-09-12T00:29:36;100547.09;;;18.44;nan
39887;BME280;25559;44.738;20.980;2022-09-12T00:32:02;100545.34;;;18.45;nan
39887;BME280;25559;44.738;20.980;2022-09-12T00:34:28;100548.66;;;18.49;nan
39887;BME280;25559;44.738;20.980;2022-09-12T00:36:54;100532.91;;;18.49;nan
39887;BME280;25559;44.738;20.980;2022-09-12T00:39:20;100546.78;;;18.51;nan
39887;BME280;25559;44.738;20.980;2022-09-12T00:41:45;100542.41;;;18.51;nan
39887;BME280;25559;44.738;20.980;2022-09-12T00:46:43;100528.78;;;18.43;nan
39887;BME280;25559;44.738;20.980;2022-09-12T00:51:53;100541.38;;;18.54;nan
39887;BME280;25559;44.738;20.980;2022-09-12T00:56:54;100541.69;;;18.47;nan
39887;BME280;25559;44.738;20.980;2022-09-12T00:59:38;100527.97;;;18.42;nan
39887;BME280;25559;44.738;20.980;2022-09-12T01:02:05;100525.09;;;18.47;nan
39887;BME280;25559;44.738;20.980;2022-09-12T01:04:31;100527.81;;;18.45;nan
39887;BME280;25559;44.738;20.980;2022-09-12T01:06:59;100544.38;;;18.46;nan
39887;BME280;25559;44.738;20.980;2022-09-12T01:11:51;100543.69;;;18.42;nan
39887;BME280;25559;44.738;20.980;2022-09-12T01:14:18;100539.28;;;18.43;nan
39887;BME280;25559;44.738;20.980;2022-09-12T01:16:46;100548.78;;;18.45;nan
39887;BME280;25559;44.738;20.980;2022-09-12T01:25:11;100546.31;;;18.42;nan
39887;BME280;25559;44.738;20.980;2022-09-12T01:39:05;100540.84;;;18.29;nan
39887;BME280;25559;44.738;20.980;2022-09-12T01:52:28;100525.09;;;18.29;nan
39887;BME280;25559;44.738;20.980;2022-09-12T01:55:01;100532.09;;;18.29;nan
39887;BME280;25559;44.738;20.980;2022-09-12T01:58:02;100530.38;;;18.28;nan
39887;BME280;25559;44.738;20.980;2022-09-12T02:00:27;100529.41;;;18.31;nan
39887;BME280;25559;44.738;20.980;2022-09-12T02:08:39;100525.78;;;18.33;nan
39887;BME280;25559;44.738;20.980;2022-09-12T02:11:08;100527.56;;;18.33;nan
39887;BME280;25559;44.738;20.980;2022-09-12T02:13:43;100530.81;;;18.38;nan
39887;BME280;25559;44.738;20.980;2022-09-12T02:16:18;100529.97;;;18.37;nan
39887;BME280;25559;44.738;20.980;2022-09-12T02:18:51;100538.53;;;18.41;nan
39887;BME280;25559;44.738;20.980;2022-09-12T02:21:17;100535.97;;;18.39;nan
39887;BME280;25559;44.738;20.980;2022-09-12T02:23:46;100533.44;;;18.38;nan
39887;BME280;25559;44.738;20.980;2022-09-12T02:26:20;100539.59;;;18.37;nan
39887;BME280;25559;44.738;20.980;2022-09-12T02:28:50;100552.56;;;18.40;nan
39887;BME280;25559;44.738;20.980;2022-09-12T02:34:12;100546.69;;;18.35;nan
39887;BME280;25559;44.738;20.980;2022-09-12T02:36:48;100544.44;;;18.27;nan
39887;BME280;25559;44.738;20.980;2022-09-12T02:39:16;100548.13;;;18.23;nan
39887;BME280;25559;44.738;20.980;2022-09-12T02:41:55;100537.78;;;18.20;nan
39887;BME280;25559;44.738;20.980;2022-09-12T02:44:24;100542.94;;;18.21;nan
39887;BME280;25559;44.738;20.980;2022-09-12T02:46:54;100530.06;;;18.17;nan
39887;BME280;25559;44.738;20.980;2022-09-12T02:49:21;100544.81;;;18.19;nan
39887;BME280;25559;44.738;20.980;2022-09-12T02:51:47;100544.94;;;18.16;nan
39887;BME280;25559;44.738;20.980;2022-09-12T02:54:14;100556.44;;;18.14;nan
39887;BME280;25559;44.738;20.980;2022-09-12T02:56:42;100541.91;;;18.06;nan
39887;BME280;25559;44.738;20.980;2022-09-12T02:59:10;100550.56;;;18.08;nan
39887;BME280;25559;44.738;20.980;2022-09-12T03:01:49;100555.06;;;18.05;nan
39887;BME280;25559;44.738;20.980;2022-09-12T03:07:11;100558.94;;;17.98;nan
39887;BME280;25559;44.738;20.980;2022-09-12T03:14:55;100561.88;;;17.90;nan
39887;BME280;25559;44.738;20.980;2022-09-12T03:20:21;100561.16;;;17.86;nan
39887;BME280;25559;44.738;20.980;2022-09-12T03:25:29;100552.78;;;17.78;nan
39887;BME280;25559;44.738;20.980;2022-09-12T03:28:00;100549.38;;;17.76;nan
39887;BME280;25559;44.738;20.980;2022-09-12T03:30:51;100561.72;;;17.74;nan
39887;BME280;25559;44.738;20.980;2022-09-12T03:33:22;100568.81;;;17.72;nan
39887;BME280;25559;44.738;20.980;2022-09-12T03:35:49;100572.31;;;17.71;nan
39887;BME280;25559;44.738;20.980;2022-09-12T03:38:16;100571.50;;;17.70;nan
39887;BME280;25559;44.738;20.980;2022-09-12T03:40:42;100571.56;;;17.69;nan
39887;BME280;25559;44.738;20.980;2022-09-12T03:43:09;100567.38;;;17.65;nan
39887;BME280;25559;44.738;20.980;2022-09-12T03:45:35;100558.69;;;17.63;nan
39887;BME280;25559;44.738;20.980;2022-09-12T03:48:02;100555.31;;;17.61;nan
39887;BME280;25559;44.738;20.980;2022-09-12T03:50:28;100600.91;;;17.56;nan
39887;BME280;25559;44.738;20.980;2022-09-12T03:52:54;100563.50;;;17.53;nan
39887;BME280;25559;44.738;20.980;2022-09-12T03:55:19;100566.97;;;17.53;nan
39887;BME280;25559;44.738;20.980;2022-09-12T03:57:45;100566.34;;;17.48;nan
39887;BME280;25559;44.738;20.980;2022-09-12T04:00:11;100560.47;;;17.43;nan
39887;BME280;25559;44.738;20.980;2022-09-12T04:02:40;100573.56;;;17.43;nan
39887;BME280;25559;44.738;20.980;2022-09-12T04:05:06;100558.81;;;17.40;nan
39887;BME280;25559;44.738;20.980;2022-09-12T04:07:32;100567.66;;;17.38;nan
39887;BME280;25559;44.738;20.980;2022-09-12T04:12:23;100560.84;;;17.34;nan
39887;BME280;25559;44.738;20.980;2022-09-12T04:14:48;100564.53;;;17.30;nan
39887;BME280;25559;44.738;20.980;2022-09-12T04:17:14;100572.25;;;17.33;nan
39887;BME280;25559;44.738;20.980;2022-09-12T04:19:39;100562.69;;;17.32;nan
39887;BME280;25559;44.738;20.980;2022-09-12T04:22:05;100578.47;;;17.30;nan
39887;BME280;25559;44.738;20.980;2022-09-12T04:24:31;100570.69;;;17.29;nan
39887;BME280;25559;44.738;20.980;2022-09-12T04:26:56;100581.94;;;17.31;nan
39887;BME280;25559;44.738;20.980;2022-09-12T04:29:22;100582.94;;;17.28;nan
39887;BME280;25559;44.738;20.980;2022-09-12T04:31:48;100585.56;;;17.28;nan
39887;BME280;25559;44.738;20.980;2022-09-12T04:34:13;100603.94;;;17.27;nan
39887;BME280;25559;44.738;20.980;2022-09-12T04:39:05;100588.09;;;17.30;nan
39887;BME280;25559;44.738;20.980;2022-09-12T04:41:37;100594.03;;;17.33;nan
39887;BME280;25559;44.738;20.980;2022-09-12T04:44:06;100583.56;;;17.33;nan
39887;BME280;25559;44.738;20.980;2022-09-12T04:46:35;100584.19;;;17.40;nan
39887;BME280;25559;44.738;20.980;2022-09-12T04:49:02;100584.03;;;17.43;nan
39887;BME280;25559;44.738;20.980;2022-09-12T04:51:33;100588.34;;;17.44;nan
39887;BME280;25559;44.738;20.980;2022-09-12T04:54:06;100590.75;;;17.49;nan
39887;BME280;25559;44.738;20.980;2022-09-12T04:56:35;100590.75;;;17.49;nan
39887;BME280;25559;44.738;20.980;2022-09-12T04:59:00;100600.19;;;17.53;nan
39887;BME280;25559;44.738;20.980;2022-09-12T05:01:27;100593.72;;;17.62;nan
39887;BME280;25559;44.738;20.980;2022-09-12T05:03:53;100589.50;;;17.78;nan
39887;BME280;25559;44.738;20.980;2022-09-12T05:06:21;100597.47;;;17.96;nan
39887;BME280;25559;44.738;20.980;2022-09-12T05:08:48;100605.13;;;18.19;nan
39887;BME280;25559;44.738;20.980;2022-09-12T05:11:16;100608.81;;;18.34;nan
39887;BME280;25559;44.738;20.980;2022-09-12T05:13:42;100622.56;;;18.39;nan
39887;BME280;25559;44.738;20.980;2022-09-12T05:16:10;100616.47;;;18.39;nan
39887;BME280;25559;44.738;20.980;2022-09-12T05:18:36;100603.41;;;18.37;nan
39887;BME280;25559;44.738;20.980;2022-09-12T05:21:05;100615.75;;;18.35;nan
39887;BME280;25559;44.738;20.980;2022-09-12T05:25:58;100621.41;;;18.45;nan
39887;BME280;25559;44.738;20.980;2022-09-12T05:28:29;100603.69;;;18.50;nan
39887;BME280;25559;44.738;20.980;2022-09-12T05:31:13;100616.69;;;18.71;nan
39887;BME280;25559;44.738;20.980;2022-09-12T05:33:41;100623.91;;;18.85;nan
39887;BME280;25559;44.738;20.980;2022-09-12T05:36:19;100627.28;;;19.06;nan
39887;BME280;25559;44.738;20.980;2022-09-12T05:38:45;100654.47;;;19.22;nan
39887;BME280;25559;44.738;20.980;2022-09-12T05:41:14;100608.97;;;19.39;nan
39887;BME280;25559;44.738;20.980;2022-09-12T05:43:41;100626.25;;;19.61;nan
39887;BME280;25559;44.738;20.980;2022-09-12T05:46:11;100620.59;;;19.86;nan
39887;BME280;25559;44.738;20.980;2022-09-12T05:48:39;100621.00;;;20.10;nan
39887;BME280;25559;44.738;20.980;2022-09-12T05:51:16;100639.03;;;20.34;nan
39887;BME280;25559;44.738;20.980;2022-09-12T05:53:47;100631.66;;;20.56;nan
39887;BME280;25559;44.738;20.980;2022-09-12T05:56:16;100634.28;;;20.88;nan
39887;BME280;25559;44.738;20.980;2022-09-12T05:58:44;100635.22;;;21.18;nan
39887;BME280;25559;44.738;20.980;2022-09-12T06:01:15;100633.78;;;21.42;nan
39887;BME280;25559;44.738;20.980;2022-09-12T06:06:09;100632.13;;;21.70;nan
39887;BME280;25559;44.738;20.980;2022-09-12T06:08:42;100636.28;;;21.89;nan
39887;BME280;25559;44.738;20.980;2022-09-12T06:11:10;100633.25;;;22.09;nan
39887;BME280;25559;44.738;20.980;2022-09-12T06:13:37;100634.06;;;22.24;nan
39887;BME280;25559;44.738;20.980;2022-09-12T06:16:14;100633.66;;;22.30;nan
39887;BME280;25559;44.738;20.980;2022-09-12T06:18:41;100632.56;;;22.34;nan
39887;BME280;25559;44.738;20.980;2022-09-12T06:21:09;100637.38;;;22.28;nan
39887;BME280;25559;44.738;20.980;2022-09-12T06:23:35;100634.25;;;22.21;nan
39887;BME280;25559;44.738;20.980;2022-09-12T06:26:03;100629.47;;;22.13;nan
39887;BME280;25559;44.738;20.980;2022-09-12T06:28:30;100623.44;;;22.11;nan
39887;BME280;25559;44.738;20.980;2022-09-12T06:31:07;100624.47;;;22.09;nan
39887;BME280;25559;44.738;20.980;2022-09-12T06:33:35;100634.88;;;21.97;nan
39887;BME280;25559;44.738;20.980;2022-09-12T06:36:05;100637.78;;;21.93;nan
39887;BME280;25559;44.738;20.980;2022-09-12T06:38:31;100647.03;;;21.86;nan
39887;BME280;25559;44.738;20.980;2022-09-12T06:40:59;100636.00;;;21.79;nan
39887;BME280;25559;44.738;20.980;2022-09-12T06:43:25;100639.28;;;21.68;nan
39887;BME280;25559;44.738;20.980;2022-09-12T06:45:52;100645.22;;;21.72;nan
39887;BME280;25559;44.738;20.980;2022-09-12T06:48:18;100648.41;;;21.77;nan
39887;BME280;25559;44.738;20.980;2022-09-12T06:51:00;100640.41;;;21.78;nan
39887;BME280;25559;44.738;20.980;2022-09-12T06:53:28;100640.69;;;21.74;nan
39887;BME280;25559;44.738;20.980;2022-09-12T06:55:56;100628.72;;;21.68;nan
39887;BME280;25559;44.738;20.980;2022-09-12T06:58:22;100632.31;;;21.67;nan
39887;BME280;25559;44.738;20.980;2022-09-12T07:00:48;100640.97;;;21.69;nan
39887;BME280;25559;44.738;20.980;2022-09-12T07:03:14;100648.59;;;21.74;nan
39887;BME280;25559;44.738;20.980;2022-09-12T07:05:39;100631.19;;;21.86;nan
39887;BME280;25559;44.738;20.980;2022-09-12T07:08:05;100641.56;;;22.03;nan
39887;BME280;25559;44.738;20.980;2022-09-12T07:10:30;100640.19;;;22.39;nan
39887;BME280;25559;44.738;20.980;2022-09-12T07:12:56;100646.09;;;22.57;nan
39887;BME280;25559;44.738;20.980;2022-09-12T07:15:23;100649.56;;;22.58;nan
39887;BME280;25559;44.738;20.980;2022-09-12T07:17:48;100652.28;;;22.70;nan
39887;BME280;25559;44.738;20.980;2022-09-12T07:20:14;100651.16;;;22.75;nan
39887;BME280;25559;44.738;20.980;2022-09-12T07:22:40;100650.28;;;22.74;nan
39887;BME280;25559;44.738;20.980;2022-09-12T07:25:06;100680.13;;;22.76;nan
39887;BME280;25559;44.738;20.980;2022-09-12T07:27:31;100665.50;;;22.70;nan
39887;BME280;25559;44.738;20.980;2022-09-12T07:29:57;100667.97;;;22.59;nan
39887;BME280;25559;44.738;20.980;2022-09-12T07:32:23;100671.00;;;22.53;nan
39887;BME280;25559;44.738;20.980;2022-09-12T07:34:49;100654.81;;;22.45;nan
39887;BME280;25559;44.738;20.980;2022-09-12T07:37:14;100675.19;;;22.43;nan
39887;BME280;25559;44.738;20.980;2022-09-12T07:39:40;100685.91;;;22.25;nan
39887;BME280;25559;44.738;20.980;2022-09-12T07:42:06;100704.88;;;22.17;nan
39887;BME280;25559;44.738;20.980;2022-09-12T07:44:32;100683.13;;;22.14;nan
39887;BME280;25559;44.738;20.980;2022-09-12T07:46:57;100680.75;;;22.24;nan
39887;BME280;25559;44.738;20.980;2022-09-12T07:49:23;100692.91;;;22.26;nan
39887;BME280;25559;44.738;20.980;2022-09-12T07:54:14;100676.41;;;22.79;nan
39887;BME280;25559;44.738;20.980;2022-09-12T07:56:40;100695.09;;;23.03;nan
39887;BME280;25559;44.738;20.980;2022-09-12T08:01:34;100686.94;;;23.99;nan
39887;BME280;25559;44.738;20.980;2022-09-12T08:04:00;100694.06;;;25.45;nan
39887;BME280;25559;44.738;20.980;2022-09-12T08:06:27;100682.19;;;25.74;nan
39887;BME280;25559;44.738;20.980;2022-09-12T08:08:57;100679.25;;;26.79;nan
39887;BME280;25559;44.738;20.980;2022-09-12T08:11:24;100677.00;;;26.51;nan
39887;BME280;25559;44.738;20.980;2022-09-12T08:13:50;100676.56;;;27.11;nan
39887;BME280;25559;44.738;20.980;2022-09-12T08:16:19;100672.63;;;29.00;nan
39887;BME280;25559;44.738;20.980;2022-09-12T08:18:46;100672.59;;;30.88;nan
39887;BME280;25559;44.738;20.980;2022-09-12T08:21:16;100674.78;;;32.08;nan
39887;BME280;25559;44.738;20.980;2022-09-12T08:23:42;100670.34;;;31.11;nan
39887;BME280;25559;44.738;20.980;2022-09-12T08:26:10;100671.91;;;31.66;nan
39887;BME280;25559;44.738;20.980;2022-09-12T08:28:36;100667.31;;;33.28;nan
39887;BME280;25559;44.738;20.980;2022-09-12T08:31:13;100655.38;;;34.03;nan
39887;BME280;25559;44.738;20.980;2022-09-12T08:33:39;100654.84;;;33.43;nan
39887;BME280;25559;44.738;20.980;2022-09-12T08:36:10;100657.56;;;32.10;nan
39887;BME280;25559;44.738;20.980;2022-09-12T08:38:39;100655.03;;;33.42;nan
39887;BME280;25559;44.738;20.980;2022-09-12T08:44:08;100656.41;;;32.97;nan
39887;BME280;25559;44.738;20.980;2022-09-12T08:49:29;100648.69;;;30.69;nan
39887;BME280;25559;44.738;20.980;2022-09-12T08:52:10;100644.78;;;29.80;nan
39887;BME280;25559;44.738;20.980;2022-09-12T08:54:37;100648.03;;;29.06;nan
39887;BME280;25559;44.738;20.980;2022-09-12T08:57:07;100638.56;;;28.34;nan
39887;BME280;25559;44.738;20.980;2022-09-12T08:59:44;100634.06;;;27.63;nan
39887;BME280;25559;44.738;20.980;2022-09-12T09:04:51;100641.47;;;27.17;nan
39887;BME280;25559;44.738;20.980;2022-09-12T09:07:32;100628.81;;;28.64;nan
39887;BME280;25559;44.738;20.980;2022-09-12T09:15:13;100626.22;;;27.92;nan
39887;BME280;25559;44.738;20.980;2022-09-12T09:23:01;100625.84;;;27.03;nan
39887;BME280;25559;44.738;20.980;2022-09-12T09:26:25;100624.25;;;26.79;nan
39887;BME280;25559;44.738;20.980;2022-09-12T09:28:40;100625.25;;;26.55;nan
39887;BME280;25559;44.738;20.980;2022-09-12T09:31:18;100617.47;;;27.80;nan
39887;BME280;25559;44.738;20.980;2022-09-12T09:33:48;100623.44;;;27.94;nan
39887;BME280;25559;44.738;20.980;2022-09-12T09:38:49;100617.81;;;30.74;nan
39887;BME280;25559;44.738;20.980;2022-09-12T09:43:51;100623.34;;;33.85;nan
39887;BME280;25559;44.738;20.980;2022-09-12T09:46:17;100612.88;;;34.99;nan
39887;BME280;25559;44.738;20.980;2022-09-12T09:48:49;100615.19;;;35.85;nan
39887;BME280;25559;44.738;20.980;2022-09-12T09:51:33;100620.69;;;37.22;nan
39887;BME280;25559;44.738;20.980;2022-09-12T09:54:14;100614.50;;;36.35;nan
39887;BME280;25559;44.738;20.980;2022-09-12T09:56:42;100611.28;;;35.58;nan
39887;BME280;25559;44.738;20.980;2022-09-12T10:01:49;100613.94;;;33.89;nan
39887;BME280;25559;44.738;20.980;2022-09-12T10:04:21;100619.16;;;33.02;nan
39887;BME280;25559;44.738;20.980;2022-09-12T10:06:55;100611.31;;;33.64;nan
39887;BME280;25559;44.738;20.980;2022-09-12T10:09:39;100617.13;;;33.20;nan
39887;BME280;25559;44.738;20.980;2022-09-12T10:12:26;100614.09;;;31.98;nan
39887;BME280;25559;44.738;20.980;2022-09-12T10:14:59;100616.59;;;31.31;nan
39887;BME280;25559;44.738;20.980;2022-09-12T10:17:31;100619.84;;;31.16;nan
39887;BME280;25559;44.738;20.980;2022-09-12T10:20:04;100599.63;;;30.60;nan
39887;BME280;25559;44.738;20.980;2022-09-12T10:22:49;100618.84;;;30.00;nan
39887;BME280;25559;44.738;20.980;2022-09-12T10:25:17;100610.81;;;29.62;nan
39887;BME280;25559;44.738;20.980;2022-09-12T10:27:43;100621.22;;;29.28;nan
39887;BME280;25559;44.738;20.980;2022-09-12T10:30:19;100613.91;;;29.00;nan
39887;BME280;25559;44.738;20.980;2022-09-12T10:32:48;100619.66;;;28.66;nan
39887;BME280;25559;44.738;20.980;2022-09-12T10:35:20;100609.78;;;28.28;nan
39887;BME280;25559;44.738;20.980;2022-09-12T10:37:55;100609.78;;;28.38;nan
39887;BME280;25559;44.738;20.980;2022-09-12T10:40:27;100619.84;;;28.75;nan
39887;BME280;25559;44.738;20.980;2022-09-12T10:42:56;100614.63;;;28.83;nan
39887;BME280;25559;44.738;20.980;2022-09-12T10:45:30;100608.75;;;28.79;nan
39887;BME280;25559;44.738;20.980;2022-09-12T10:47:58;100613.31;;;28.48;nan
39887;BME280;25559;44.738;20.980;2022-09-12T11:01:23;100599.78;;;26.97;nan
39887;BME280;25559;44.738;20.980;2022-09-12T11:17:26;100618.00;;;25.68;nan
39887;BME280;25559;44.738;20.980;2022-09-12T11:25:27;100594.56;;;25.40;nan
39887;BME280;25559;44.738;20.980;2022-09-12T11:30:52;100596.63;;;25.36;nan
39887;BME280;25559;44.738;20.980;2022-09-12T11:35:50;100592.44;;;25.09;nan
39887;BME280;25559;44.738;20.980;2022-09-12T11:38:49;100593.97;;;25.00;nan
39887;BME280;25559;44.738;20.980;2022-09-12T11:41:22;100588.66;;;25.00;nan
39887;BME280;25559;44.738;20.980;2022-09-12T11:43:59;100591.94;;;25.04;nan
39887;BME280;25559;44.738;20.980;2022-09-12T11:46:33;100591.97;;;25.15;nan
39887;BME280;25559;44.738;20.980;2022-09-12T11:49:09;100585.34;;;25.21;nan
39887;BME280;25559;44.738;20.980;2022-09-12T11:54:20;100587.53;;;25.27;nan
39887;BME280;25559;44.738;20.980;2022-09-12T11:56:52;100565.97;;;25.21;nan
39887;BME280;25559;44.738;20.980;2022-09-12T11:59:28;100581.66;;;25.35;nan
39887;BME280;25559;44.738;20.980;2022-09-12T12:01:58;100584.19;;;25.36;nan
39887;BME280;25559;44.738;20.980;2022-09-12T12:04:31;100578.75;;;25.27;nan
39887;BME280;25559;44.738;20.980;2022-09-12T12:07:05;100581.97;;;25.19;nan
39887;BME280;25559;44.738;20.980;2022-09-12T12:09:32;100579.44;;;25.17;nan
39887;BME280;25559;44.738;20.980;2022-09-12T12:12:04;100573.78;;;25.22;nan
39887;BME280;25559;44.738;20.980;2022-09-12T12:14:40;100568.50;;;25.22;nan
39887;BME280;25559;44.738;20.980;2022-09-12T12:17:16;100572.44;;;25.16;nan
39887;BME280;25559;44.738;20.980;2022-09-12T12:19:44;100571.84;;;25.13;nan
39887;BME280;25559;44.738;20.980;2022-09-12T12:22:17;100563.13;;;24.99;nan
39887;BME280;25559;44.738;20.980;2022-09-12T12:27:47;100584.06;;;24.91;nan
39887;BME280;25559;44.738;20.980;2022-09-12T12:38:02;100576.50;;;24.62;nan
39887;BME280;25559;44.738;20.980;2022-09-12T12:40:29;100579.69;;;24.55;nan
39887;BME280;25559;44.738;20.980;2022-09-12T12:42:58;100596.31;;;24.57;nan
39887;BME280;25559;44.738;20.980;2022-09-12T12:47:54;100568.47;;;24.51;nan
39887;BME280;25559;44.738;20.980;2022-09-12T12:50:25;100569.75;;;24.58;nan
39887;BME280;25559;44.738;20.980;2022-09-12T12:52:52;100565.78;;;24.64;nan
39887;BME280;25559;44.738;20.980;2022-09-12T12:55:26;100563.66;;;24.69;nan
39887;BME280;25559;44.738;20.980;2022-09-12T12:57:56;100561.88;;;24.57;nan
39887;BME280;25559;44.738;20.980;2022-09-12T13:02:54;100547.56;;;24.59;nan
39887;BME280;25559;44.738;20.980;2022-09-12T13:05:23;100556.28;;;24.61;nan
39887;BME280;25559;44.738;20.980;2022-09-12T13:13:26;100549.97;;;24.38;nan
39887;BME280;25559;44.738;20.980;2022-09-12T13:15:54;100542.81;;;24.27;nan
39887;BME280;25559;44.738;20.980;2022-09-12T13:18:47;100549.00;;;24.28;nan
39887;BME280;25559;44.738;20.980;2022-09-12T13:21:15;100554.28;;;24.28;nan
39887;BME280;25559;44.738;20.980;2022-09-12T13:23:42;100544.97;;;24.22;nan
39887;BME280;25559;44.738;20.980;2022-09-12T13:26:13;100551.75;;;24.26;nan
39887;BME280;25559;44.738;20.980;2022-09-12T13:28:45;100548.19;;;24.15;nan
39887;BME280;25559;44.738;20.980;2022-09-12T13:31:24;100558.09;;;24.24;nan
39887;BME280;25559;44.738;20.980;2022-09-12T13:33:54;100543.34;;;24.33;nan
39887;BME280;25559;44.738;20.980;2022-09-12T13:45:31;100559.66;;;24.02;nan
39887;BME280;25559;44.738;20.980;2022-09-12T13:47:59;100541.06;;;23.91;nan
39887;BME280;25559;44.738;20.980;2022-09-12T13:50:30;100545.06;;;23.84;nan
39887;BME280;25559;44.738;20.980;2022-09-12T13:53:00;100543.59;;;23.80;nan
39887;BME280;25559;44.738;20.980;2022-09-12T13:55:30;100533.75;;;23.82;nan
39887;BME280;25559;44.738;20.980;2022-09-12T13:57:58;100535.16;;;23.87;nan
39887;BME280;25559;44.738;20.980;2022-09-12T14:00:24;100535.34;;;23.84;nan
39887;BME280;25559;44.738;20.980;2022-09-12T14:02:51;100519.56;;;23.83;nan
39887;BME280;25559;44.738;20.980;2022-09-12T14:05:38;100515.03;;;23.85;nan
39887;BME280;25559;44.738;20.980;2022-09-12T14:08:06;100514.16;;;23.84;nan
39887;BME280;25559;44.738;20.980;2022-09-12T14:10:37;100511.81;;;23.92;nan
39887;BME280;25559;44.738;20.980;2022-09-12T14:13:10;100520.78;;;24.03;nan
39887;BME280;25559;44.738;20.980;2022-09-12T14:15:37;100514.56;;;24.04;nan
39887;BME280;25559;44.738;20.980;2022-09-12T14:18:05;100509.25;;;24.04;nan
39887;BME280;25559;44.738;20.980;2022-09-12T14:20:36;100531.16;;;24.06;nan
39887;BME280;25559;44.738;20.980;2022-09-12T14:23:29;100503.91;;;24.17;nan
39887;BME280;25559;44.738;20.980;2022-09-12T14:25:56;100517.97;;;24.41;nan
39887;BME280;25559;44.738;20.980;2022-09-12T14:28:23;100516.84;;;24.57;nan
39887;BME280;25559;44.738;20.980;2022-09-12T14:31:06;100530.22;;;24.55;nan
39887;BME280;25559;44.738;20.980;2022-09-12T14:33:33;100519.72;;;24.54;nan
39887;BME280;25559;44.738;20.980;2022-09-12T14:41:12;100502.38;;;24.50;nan
39887;BME280;25559;44.738;20.980;2022-09-12T14:43:42;100506.31;;;24.44;nan
39887;BME280;25559;44.738;20.980;2022-09-12T14:46:19;100505.28;;;24.34;nan
39887;BME280;25559;44.738;20.980;2022-09-12T14:51:24;100502.38;;;24.25;nan
39887;BME280;25559;44.738;20.980;2022-09-12T14:53:50;100512.16;;;24.25;nan
39887;BME280;25559;44.738;20.980;2022-09-12T14:56:16;100528.25;;;24.22;nan
39887;BME280;25559;44.738;20.980;2022-09-12T14:58:44;100495.13;;;24.16;nan
39887;BME280;25559;44.738;20.980;2022-09-12T15:06:29;100507.00;;;24.10;nan
39887;BME280;25559;44.738;20.980;2022-09-12T15:09:01;100496.75;;;24.06;nan
39887;BME280;25559;44.738;20.980;2022-09-12T15:11:27;100502.03;;;24.06;nan
39887;BME280;25559;44.738;20.980;2022-09-12T15:13:53;100505.03;;;24.01;nan
39887;BME280;25559;44.738;20.980;2022-09-12T15:18:45;100490.66;;;23.92;nan
39887;BME280;25559;44.738;20.980;2022-09-12T15:21:14;100495.34;;;23.89;nan
39887;BME280;25559;44.738;20.980;2022-09-12T15:23:50;100498.38;;;23.95;nan
39887;BME280;25559;44.738;20.980;2022-09-12T15:26:19;100494.78;;;23.97;nan
39887;BME280;25559;44.738;20.980;2022-09-12T15:28:45;100520.19;;;23.99;nan
39887;BME280;25559;44.738;20.980;2022-09-12T15:31:25;100506.94;;;23.99;nan
39887;BME280;25559;44.738;20.980;2022-09-12T15:33:52;100501.88;;;23.96;nan
39887;BME280;25559;44.738;20.980;2022-09-12T15:36:19;100530.47;;;23.91;nan
39887;BME280;25559;44.738;20.980;2022-09-12T15:38:46;100507.19;;;23.96;nan
39887;BME280;25559;44.738;20.980;2022-09-12T15:43:39;100492.97;;;23.97;nan
39887;BME280;25559;44.738;20.980;2022-09-12T15:46:05;100497.66;;;23.93;nan
39887;BME280;25559;44.738;20.980;2022-09-12T15:50:56;100491.53;;;23.93;nan
39887;BME280;25559;44.738;20.980;2022-09-12T15:53:26;100486.69;;;23.87;nan
39887;BME280;25559;44.738;20.980;2022-09-12T15:55:52;100487.50;;;23.87;nan
39887;BME280;25559;44.738;20.980;2022-09-12T15:58:18;100481.16;;;23.90;nan
39887;BME280;25559;44.738;20.980;2022-09-12T16:00:43;100490.16;;;23.87;nan
39887;BME280;25559;44.738;20.980;2022-09-12T16:03:19;100480.81;;;23.82;nan
39887;BME280;25559;44.738;20.980;2022-09-12T16:05:45;100482.84;;;23.78;nan
39887;BME280;25559;44.738;20.980;2022-09-12T16:08:10;100486.56;;;23.75;nan
39887;BME280;25559;44.738;20.980;2022-09-12T16:10:36;100487.22;;;23.66;nan
39887;BME280;25559;44.738;20.980;2022-09-12T16:13:01;100480.56;;;23.60;nan
39887;BME280;25559;44.738;20.980;2022-09-12T16:15:28;100481.84;;;23.55;nan
39887;BME280;25559;44.738;20.980;2022-09-12T16:17:54;100478.13;;;23.57;nan
39887;BME280;25559;44.738;20.980;2022-09-12T16:20:20;100465.56;;;23.48;nan
39887;BME280;25559;44.738;20.980;2022-09-12T16:22:47;100474.22;;;23.50;nan
39887;BME280;25559;44.738;20.980;2022-09-12T16:25:13;100478.91;;;23.47;nan